createdAt,value
2023-12-01T00:02:34.388Z,83.88
2023-12-01T00:06:20.827Z,83.49
2023-12-01T00:10:07.033Z,83.81
2023-12-01T00:13:39.561Z,83.70
2023-12-01T00:17:19.058Z,83.34
2023-12-01T00:21:05.436Z,83.63
2023-12-01T00:24:34.647Z,83.70
2023-12-01T00:28:04.636Z,83.79
2023-12-01T00:31:50.759Z,83.64
2023-12-01T00:35:18.485Z,83.53
2023-12-01T00:38:35.195Z,83.41
2023-12-01T00:42:21.417Z,83.35
2023-12-01T00:46:20.560Z,83.46
2023-12-01T00:50:06.625Z,83.39
2023-12-01T00:53:53.227Z,83.52
2023-12-01T00:57:39.718Z,83.39
2023-12-01T01:01:29.001Z,83.19
2023-12-01T01:05:15.283Z,82.76
2023-12-01T01:08:44.101Z,83.26
2023-12-01T01:12:28.842Z,83.23
2023-12-01T01:16:10.550Z,83.26
2023-12-01T01:19:56.884Z,83.05
2023-12-01T01:23:43.590Z,83.26
2023-12-01T01:27:29.773Z,83.13
2023-12-01T01:31:16.226Z,82.99
2023-12-01T01:35:02.426Z,83.05
2023-12-01T01:38:15.085Z,82.92
2023-12-01T01:42:01.464Z,83.04
2023-12-01T01:45:48.000Z,82.91
2023-12-01T01:49:34.215Z,83.17
2023-12-01T01:53:20.824Z,82.89
2023-12-01T01:56:58.967Z,83.07
2023-12-01T02:03:45.416Z,83.12
2023-12-01T02:06:14.924Z,83.01
2023-12-01T02:08:45.135Z,83.09
2023-12-01T02:11:15.024Z,82.97
2023-12-01T02:13:48.627Z,82.87
2023-12-01T02:16:15.569Z,83.02
2023-12-01T02:18:44.078Z,82.93
2023-12-01T02:21:12.846Z,83.11
2023-12-01T02:23:40.369Z,82.94
2023-12-01T02:26:12.101Z,83.02
2023-12-01T02:28:39.054Z,83.21
2023-12-01T02:31:06.781Z,83.10
2023-12-01T02:33:38.349Z,83.29
2023-12-01T02:36:13.233Z,83.08
2023-12-01T02:38:46.932Z,83.27
2023-12-01T02:41:17.334Z,83.53
2023-12-01T02:43:46.110Z,83.41
2023-12-01T02:46:13.514Z,83.27
2023-12-01T02:48:41.417Z,82.79
2023-12-01T02:51:09.407Z,82.83
2023-12-01T02:53:37.916Z,83.38
2023-12-01T02:56:11.010Z,82.91
2023-12-01T02:58:38.414Z,83.23
2023-12-01T03:01:07.650Z,83.55
2023-12-01T03:03:55.398Z,83.76
2023-12-01T03:06:44.757Z,84.02
2023-12-01T03:09:24.193Z,83.77
2023-12-01T03:12:13.355Z,84.09
2023-12-01T03:14:40.450Z,83.94
2023-12-01T03:17:47.935Z,83.58
2023-12-01T03:20:29.858Z,83.95
2023-12-01T03:23:16.308Z,83.89
2023-12-01T03:26:03.003Z,83.93
2023-12-01T03:28:39.114Z,83.76
2023-12-01T03:31:09.360Z,83.68
2023-12-01T03:33:41.596Z,83.74
2023-12-01T03:36:09.480Z,83.63
2023-12-01T03:38:57.358Z,83.86
2023-12-01T03:41:25.426Z,83.54
2023-12-01T03:43:52.060Z,83.72
2023-12-01T03:46:22.764Z,83.48
2023-12-01T03:49:09.344Z,83.58
2023-12-01T03:51:57.830Z,83.42
2023-12-01T03:54:24.666Z,83.54
2023-12-01T03:56:53.778Z,83.51
2023-12-01T03:59:23.864Z,83.71
2023-12-01T04:02:10.586Z,83.47
2023-12-01T04:04:43.370Z,83.42
2023-12-01T04:07:10.565Z,83.54
2023-12-01T04:09:39.758Z,83.60
2023-12-01T04:12:11.505Z,83.54
2023-12-01T04:14:39.308Z,83.60
2023-12-01T04:17:16.044Z,83.91
2023-12-01T04:20:22.124Z,83.59
2023-12-01T04:22:58.398Z,83.89
2023-12-01T04:25:26.643Z,83.85
2023-12-01T04:27:57.537Z,83.80
2023-12-01T04:30:25.485Z,83.79
2023-12-01T04:32:58.679Z,84.03
2023-12-01T04:35:33.490Z,84.17
2023-12-01T04:38:23.937Z,84.38
2023-12-01T04:40:51.464Z,83.94
2023-12-01T04:43:21.118Z,84.12
2023-12-01T04:46:07.787Z,84.17
2023-12-01T04:48:35.135Z,84.21
2023-12-01T04:51:01.941Z,84.28
2023-12-01T04:53:29.123Z,84.39
2023-12-01T04:55:57.773Z,84.44
2023-12-01T04:58:25.237Z,84.09
2023-12-01T05:00:52.597Z,84.41
2023-12-01T05:03:19.332Z,84.07
2023-12-01T05:05:47.320Z,84.01
2023-12-01T05:08:13.944Z,83.93
2023-12-01T05:10:45.697Z,83.71
2023-12-01T05:13:16.906Z,84.14
2023-12-01T05:15:45.196Z,84.31
2023-12-01T05:18:12.580Z,84.32
2023-12-01T05:20:40.511Z,84.30
2023-12-01T05:23:13.061Z,84.40
2023-12-01T05:25:42.146Z,84.56
2023-12-01T05:29:09.364Z,84.19
2023-12-01T05:32:56.547Z,84.28
2023-12-01T05:36:43.777Z,84.12
2023-12-01T05:40:17.763Z,84.59
2023-12-01T05:44:04.612Z,84.54
2023-12-01T05:47:35.812Z,84.36
2023-12-01T05:51:26.818Z,84.26
2023-12-01T05:55:14.102Z,84.33
2023-12-01T05:59:00.571Z,84.39
2023-12-01T06:02:47.497Z,83.93
2023-12-01T06:06:34.595Z,84.30
2023-12-01T06:10:21.573Z,84.32
2023-12-01T06:14:08.308Z,84.22
2023-12-01T06:17:56.230Z,84.41
2023-12-01T06:21:43.311Z,84.40
2023-12-01T06:25:18.633Z,84.79
2023-12-01T06:29:05.330Z,84.73
2023-12-01T06:32:52.177Z,84.69
2023-12-01T06:36:39.285Z,84.69
2023-12-01T06:40:35.673Z,84.54
2023-12-01T06:44:21.682Z,84.68
2023-12-01T06:48:08.619Z,84.81
2023-12-01T06:51:55.470Z,84.65
2023-12-01T06:55:44.780Z,85.06
2023-12-01T06:59:22.348Z,84.88
2023-12-01T07:03:09.873Z,84.76
2023-12-01T07:06:56.256Z,84.89
2023-12-01T07:10:42.918Z,84.57
2023-12-01T07:14:31.025Z,84.52
2023-12-01T07:18:21.192Z,85.08
2023-12-01T07:22:08.031Z,85.09
2023-12-01T07:25:56.176Z,84.82
2023-12-01T07:29:44.956Z,84.92
2023-12-01T07:33:31.913Z,84.76
2023-12-01T07:37:21.896Z,85.13
2023-12-01T07:41:09.139Z,85.03
2023-12-01T07:44:56.517Z,85.12
2023-12-01T07:48:45.323Z,84.86
2023-12-01T07:52:32.259Z,85.14
2023-12-01T07:56:19.067Z,85.41
2023-12-01T08:00:05.928Z,85.01
2023-12-01T08:03:52.941Z,85.03
2023-12-01T08:11:27.341Z,84.61
2023-12-01T08:15:14.889Z,84.91
2023-12-01T08:19:02.568Z,84.73
2023-12-01T08:22:52.647Z,85.14
2023-12-01T08:26:42.700Z,85.00
2023-12-01T08:30:28.663Z,84.65
2023-12-01T08:34:22.455Z,85.00
2023-12-01T08:38:02.919Z,84.65
2023-12-01T08:41:50.478Z,85.00
2023-12-01T08:45:41.610Z,85.02
2023-12-01T08:49:28.126Z,84.46
2023-12-01T08:53:16.153Z,84.69
2023-12-01T08:57:03.278Z,84.76
2023-12-01T09:04:44.074Z,85.08
2023-12-01T09:08:38.338Z,85.05
2023-12-01T09:12:25.746Z,85.32
2023-12-01T09:16:12.960Z,84.63
2023-12-01T09:20:03.047Z,84.53
2023-12-01T09:23:50.394Z,84.22
2023-12-01T09:27:39.282Z,84.61
2023-12-01T09:31:27.811Z,84.32
2023-12-01T09:35:53.492Z,84.14
2023-12-01T09:39:07.824Z,84.06
2023-12-01T09:42:55.650Z,84.20
2023-12-01T09:46:43.085Z,83.93
2023-12-01T09:50:41.616Z,83.64
2023-12-01T09:54:28.962Z,83.54
2023-12-01T09:58:16.312Z,83.10
2023-12-01T10:02:03.707Z,82.99
2023-12-01T10:05:51.999Z,82.87
2023-12-01T10:09:39.458Z,81.91
2023-12-01T10:13:35.550Z,82.11
2023-12-01T10:17:23.128Z,82.45
2023-12-01T10:21:10.449Z,82.56
2023-12-01T10:25:00.908Z,82.53
2023-12-01T10:28:48.060Z,82.77
2023-12-01T10:32:35.406Z,82.40
2023-12-01T10:36:23.517Z,82.45
2023-12-01T10:40:11.197Z,82.34
2023-12-01T10:44:00.004Z,82.13
2023-12-01T10:47:51.325Z,81.61
2023-12-01T10:51:38.524Z,81.96
2023-12-01T10:55:29.431Z,81.49
2023-12-01T10:59:16.884Z,80.89
2023-12-01T11:03:04.936Z,81.33
2023-12-01T11:06:51.936Z,81.14
2023-12-01T11:10:57.154Z,80.95
2023-12-01T11:14:50.109Z,80.35
2023-12-01T11:18:39.003Z,79.76
2023-12-01T11:22:26.004Z,79.78
2023-12-01T11:26:22.500Z,79.92
2023-12-01T11:30:12.564Z,79.70
2023-12-01T11:34:00.135Z,79.97
2023-12-01T11:37:50.597Z,79.62
2023-12-01T11:41:40.564Z,80.12
2023-12-01T11:45:37.462Z,80.07
2023-12-01T11:49:27.375Z,80.02
2023-12-01T11:53:17.406Z,79.72
2023-12-01T11:57:05.023Z,79.56
2023-12-01T12:01:01.579Z,78.85
2023-12-01T12:04:49.302Z,79.08
2023-12-01T12:08:36.483Z,78.75
2023-12-01T12:12:23.817Z,78.00
2023-12-01T12:16:11.538Z,77.93
2023-12-01T12:20:09.510Z,77.45
2023-12-01T12:23:53.024Z,77.43
2023-12-01T12:27:40.547Z,77.62
2023-12-01T12:31:27.975Z,77.08
2023-12-01T12:35:15.347Z,76.80
2023-12-01T12:39:02.591Z,77.08
2023-12-01T12:42:52.842Z,76.80
2023-12-01T12:46:40.386Z,76.58
2023-12-01T12:50:29.176Z,76.89
2023-12-01T12:54:18.120Z,76.52
2023-12-01T12:58:05.012Z,76.81
2023-12-01T13:01:52.355Z,77.08
2023-12-01T13:05:39.987Z,76.54
2023-12-01T13:09:30.149Z,76.62
2023-12-01T13:13:17.339Z,75.91
2023-12-01T13:17:05.041Z,76.81
2023-12-01T13:20:52.532Z,76.47
2023-12-01T13:24:40.012Z,76.62
2023-12-01T13:28:27.235Z,76.69
2023-12-01T13:32:14.907Z,76.66
2023-12-01T13:36:04.096Z,77.02
2023-12-01T13:39:51.131Z,77.04
2023-12-01T13:43:39.125Z,77.45
2023-12-01T13:47:26.197Z,77.32
2023-12-01T13:51:15.947Z,77.27
2023-12-01T13:55:03.311Z,77.56
2023-12-01T13:58:53.035Z,77.41
2023-12-01T14:02:41.816Z,77.36
2023-12-01T14:06:29.197Z,77.48
2023-12-01T14:10:19.285Z,77.76
2023-12-01T14:17:51.588Z,77.33
2023-12-01T14:21:38.794Z,77.61
2023-12-01T14:25:26.237Z,77.72
2023-12-01T14:29:18.103Z,77.88
2023-12-01T14:33:05.471Z,78.04
2023-12-01T14:36:52.920Z,78.09
2023-12-01T14:40:41.979Z,78.02
2023-12-01T14:44:29.169Z,78.24
2023-12-01T14:48:16.909Z,78.56
2023-12-01T14:52:03.973Z,78.24
2023-12-01T14:55:51.966Z,78.01
2023-12-01T14:59:44.167Z,78.53
2023-12-01T15:03:31.572Z,78.22
2023-12-01T15:07:19.682Z,78.41
2023-12-01T15:11:07.329Z,78.54
2023-12-01T15:14:54.697Z,78.73
2023-12-01T15:18:41.961Z,78.50
2023-12-01T15:22:30.472Z,78.84
2023-12-01T15:26:19.421Z,78.74
2023-12-01T15:30:06.689Z,78.60
2023-12-01T15:33:53.768Z,78.79
2023-12-01T15:37:45.668Z,78.85
2023-12-01T15:41:33.001Z,79.07
2023-12-01T15:45:23.491Z,79.01
2023-12-01T15:49:12.916Z,79.24
2023-12-01T15:53:00.309Z,79.37
2023-12-01T15:56:49.147Z,79.61
2023-12-01T16:00:40.222Z,79.39
2023-12-01T16:04:27.121Z,79.71
2023-12-01T16:08:14.435Z,79.75
2023-12-01T16:12:01.724Z,80.01
2023-12-01T16:15:48.934Z,79.85
2023-12-01T16:19:38.757Z,80.01
2023-12-01T16:23:25.793Z,79.94
2023-12-01T16:27:13.085Z,80.05
2023-12-01T16:31:00.576Z,80.00
2023-12-01T16:34:47.838Z,80.05
2023-12-01T16:38:35.185Z,80.28
2023-12-01T16:42:22.361Z,80.15
2023-12-01T16:46:10.955Z,79.99
2023-12-01T16:49:57.925Z,80.93
2023-12-01T16:53:45.252Z,80.44
2023-12-01T16:57:32.405Z,80.61
2023-12-01T17:01:20.942Z,80.77
2023-12-01T17:05:10.876Z,80.70
2023-12-01T17:09:00.092Z,80.61
2023-12-01T17:12:45.295Z,80.71
2023-12-01T17:16:32.259Z,81.01
2023-12-01T17:20:20.573Z,80.82
2023-12-01T17:24:07.872Z,80.65
2023-12-01T17:27:55.147Z,81.12
2023-12-01T17:31:42.388Z,81.35
2023-12-01T17:35:30.014Z,81.43
2023-12-01T17:39:17.381Z,81.47
2023-12-01T17:43:04.767Z,81.57
2023-12-01T17:46:52.988Z,81.06
2023-12-01T17:50:41.579Z,81.15
2023-12-01T17:54:28.869Z,81.29
2023-12-01T17:58:16.319Z,81.80
2023-12-01T18:02:04.687Z,81.76
2023-12-01T18:05:51.728Z,81.44
2023-12-01T18:09:42.295Z,81.72
2023-12-01T18:13:31.974Z,81.48
2023-12-01T18:17:19.143Z,81.81
2023-12-01T18:21:08.207Z,81.80
2023-12-01T18:25:20.990Z,81.75
2023-12-01T18:29:09.621Z,81.73
2023-12-01T18:32:57.037Z,81.90
2023-12-01T18:36:45.345Z,82.12
2023-12-01T18:40:32.214Z,81.84
2023-12-01T18:44:19.385Z,82.19
2023-12-01T18:47:48.688Z,82.22
2023-12-01T18:51:28.764Z,82.37
2023-12-01T18:54:16.750Z,82.30
2023-12-01T18:57:56.598Z,82.26
2023-12-01T19:01:42.932Z,82.21
2023-12-01T19:05:10.659Z,82.24
2023-12-01T19:08:36.933Z,82.17
2023-12-01T19:12:03.940Z,82.63
2023-12-01T19:15:30.366Z,82.35
2023-12-01T19:19:16.996Z,82.66
2023-12-01T19:22:35.441Z,82.60
2023-12-01T19:26:05.885Z,82.40
2023-12-01T19:29:53.187Z,82.61
2023-12-01T19:33:40.702Z,82.73
2023-12-01T19:37:27.696Z,82.49
2023-12-01T19:41:14.613Z,82.93
2023-12-01T19:45:01.503Z,82.88
2023-12-01T19:48:32.932Z,82.71
2023-12-01T19:52:06.216Z,82.67
2023-12-01T19:55:53.218Z,82.76
2023-12-01T19:59:39.636Z,82.76
2023-12-01T20:03:27.010Z,82.86
2023-12-01T20:06:48.593Z,82.90
2023-12-01T20:10:34.805Z,82.87
2023-12-01T20:14:06.732Z,82.93
2023-12-01T20:17:40.642Z,82.69
2023-12-01T20:21:27.039Z,82.84
2023-12-01T20:25:14.261Z,83.01
2023-12-01T20:29:01.362Z,82.74
2023-12-01T20:32:48.740Z,82.82
2023-12-01T20:36:35.118Z,82.97
2023-12-01T20:40:21.408Z,83.00
2023-12-01T20:43:49.476Z,82.54
2023-12-01T20:47:15.943Z,82.99
2023-12-01T20:50:43.862Z,83.21
2023-12-01T20:54:34.872Z,83.16
2023-12-01T20:58:21.971Z,82.93
2023-12-01T21:02:10.800Z,82.75
2023-12-01T21:05:57.286Z,83.15
2023-12-01T21:09:44.050Z,82.90
2023-12-01T21:13:30.939Z,83.09
2023-12-01T21:17:18.281Z,82.95
2023-12-01T21:24:49.468Z,83.04
2023-12-01T21:28:36.845Z,83.27
2023-12-01T21:32:25.209Z,82.85
2023-12-01T21:36:12.275Z,83.11
2023-12-01T21:39:58.899Z,82.95
2023-12-01T21:43:46.400Z,83.18
2023-12-01T21:47:34.891Z,83.06
2023-12-01T21:51:21.818Z,82.98
2023-12-01T21:55:09.863Z,83.40
2023-12-01T21:58:57.095Z,83.08
2023-12-01T22:02:44.218Z,83.16
2023-12-01T22:06:34.005Z,83.50
2023-12-01T22:10:20.886Z,83.40
2023-12-01T22:14:08.332Z,83.43
2023-12-01T22:17:57.112Z,83.18
2023-12-01T22:21:44.139Z,83.60
2023-12-01T22:25:30.801Z,83.43
2023-12-01T22:29:17.578Z,83.57
2023-12-01T22:33:05.206Z,83.28
2023-12-01T22:36:52.342Z,83.29
2023-12-01T22:40:39.300Z,83.30
2023-12-01T22:44:30.587Z,83.43
2023-12-01T22:48:18.179Z,83.62
2023-12-01T22:52:06.738Z,83.68
2023-12-01T22:55:54.157Z,83.55
2023-12-01T22:59:41.412Z,83.54
2023-12-01T23:03:29.388Z,83.46
2023-12-01T23:07:02.133Z,83.43
2023-12-01T23:10:48.522Z,83.32
2023-12-01T23:14:07.999Z,83.43
2023-12-01T23:17:37.006Z,83.69
2023-12-01T23:21:23.643Z,83.86
2023-12-01T23:25:10.614Z,83.72
2023-12-01T23:28:56.113Z,83.79
2023-12-01T23:32:33.219Z,83.81
2023-12-01T23:36:19.933Z,84.06
2023-12-01T23:40:06.130Z,83.96
2023-12-01T23:43:52.564Z,83.86
2023-12-01T23:47:38.704Z,84.07
2023-12-01T23:50:49.684Z,84.13
2023-12-01T23:54:18.974Z,84.25
2023-12-01T23:57:58.269Z,84.27
